Time;durP1;ratioP1;P1;durP2;ratioP2;P2;SDS_P1;SDS_P2;PMS_P1;PMS_P2;Temp;Humidity;BMP_temperature;BMP_pressure;BME280_temperature;BME280_humidity;BME280_pressure;Samples;Min_cycle;Max_cycle;Signal;HPM_P1;HPM_P2
2022/03/11 00:01:00;;;;;;;8.87;6.37;;;;;;;;;;5011401;28;20523;-48
2022/03/11 00:03:26;;;;;;;13.10;8.40;;;;;;;;;;5010521;28;20526;-48
2022/03/11 00:05:53;;;;;;;9.53;7.43;;;;;;;;;;5011900;28;20903;-49
2022/03/11 00:08:20;;;;;;;9.50;6.50;;;;;;;;;;5011797;28;20396;-50
2022/03/11 00:11:05;;;;;;;10.27;6.80;;;;;;;;;;5012396;28;20547;-50
2022/03/11 00:13:31;;;;;;;11.47;6.00;;;;;;;;;;5007569;28;20500;-50
2022/03/11 00:15:57;;;;;;;9.63;6.30;;;;;;;;;;5032102;28;20406;-50
2022/03/11 00:18:23;;;;;;;9.30;6.63;;;;;;;;;;5031980;28;20396;-50
2022/03/11 00:20:49;;;;;;;11.30;6.80;;;;;;;;;;5031747;28;20797;-50
2022/03/11 00:23:15;;;;;;;11.33;6.87;;;;;;;;;;5031816;28;20407;-50
2022/03/11 00:25:41;;;;;;;8.97;6.07;;;;;;;;;;5031806;28;20415;-49
2022/03/11 00:28:07;;;;;;;8.83;7.10;;;;;;;;;;5031920;28;20449;-50
2022/03/11 00:30:33;;;;;;;8.93;6.30;;;;;;;;;;5031431;28;20459;-50
2022/03/11 00:33:00;;;;;;;10.40;6.53;;;;;;;;;;5031657;28;20399;-50
2022/03/11 00:35:27;;;;;;;21.00;6.13;;;;;;;;;;5031657;28;20410;-51
2022/03/11 00:37:53;;;;;;;10.57;5.87;;;;;;;;;;5031699;28;20400;-50
2022/03/11 00:40:19;;;;;;;9.07;6.00;;;;;;;;;;5031374;28;20440;-51
2022/03/11 00:42:45;;;;;;;10.37;6.00;;;;;;;;;;5031844;28;20448;-49
2022/03/11 00:45:14;;;;;;;9.30;6.57;;;;;;;;;;5031893;28;20415;-46
2022/03/11 00:47:40;;;;;;;8.47;6.57;;;;;;;;;;5031234;28;20410;-47
2022/03/11 00:50:06;;;;;;;6.50;5.50;;;;;;;;;;5030832;28;20947;-47
2022/03/11 00:52:32;;;;;;;12.37;6.10;;;;;;;;;;5030980;28;20410;-47
2022/03/11 00:54:58;;;;;;;11.10;6.90;;;;;;;;;;5031194;28;20537;-46
2022/03/11 00:57:24;;;;;;;9.07;6.80;;;;;;;;;;5031305;28;20455;-47
2022/03/11 00:59:50;;;;;;;10.30;6.67;;;;;;;;;;5032265;28;20459;-47
2022/03/11 01:02:17;;;;;;;11.60;6.40;;;;;;;;;;5034534;28;20398;-49
2022/03/11 01:04:44;;;;;;;8.10;6.93;;;;;;;;;;5034609;28;20862;-48
2022/03/11 01:07:10;;;;;;;9.93;6.60;;;;;;;;;;5034466;28;20484;-48
2022/03/11 01:09:36;;;;;;;11.37;7.77;;;;;;;;;;5034285;28;20457;-50
2022/03/11 01:12:02;;;;;;;11.30;6.77;;;;;;;;;;5034392;28;20423;-46
2022/03/11 01:14:28;;;;;;;13.33;6.77;;;;;;;;;;5034395;28;20402;-48
2022/03/11 01:16:54;;;;;;;10.00;6.97;;;;;;;;;;5034386;28;20402;-47
2022/03/11 01:19:20;;;;;;;11.00;7.70;;;;;;;;;;5034164;28;20407;-47
2022/03/11 01:21:46;;;;;;;10.13;6.90;;;;;;;;;;5034011;28;20471;-47
2022/03/11 01:24:12;;;;;;;14.00;7.20;;;;;;;;;;5034289;28;20462;-46
2022/03/11 01:26:38;;;;;;;9.90;6.50;;;;;;;;;;5034576;28;20447;-48
2022/03/11 01:29:04;;;;;;;12.97;7.53;;;;;;;;;;5034030;28;20454;-50
2022/03/11 01:31:30;;;;;;;10.63;6.83;;;;;;;;;;5034004;28;20769;-47
2022/03/11 01:33:56;;;;;;;11.70;6.77;;;;;;;;;;5033651;28;20437;-46
2022/03/11 01:36:22;;;;;;;8.40;5.90;;;;;;;;;;5033670;28;20497;-46
2022/03/11 01:38:48;;;;;;;14.50;7.00;;;;;;;;;;5034000;28;20410;-47
2022/03/11 01:41:13;;;;;;;10.40;6.47;;;;;;;;;;5033785;28;20861;-47
2022/03/11 01:43:58;;;;;;;10.03;7.00;;;;;;;;;;5033853;28;20490;-47
2022/03/11 01:46:24;;;;;;;10.90;7.57;;;;;;;;;;5033895;28;20477;-48
2022/03/11 01:48:50;;;;;;;11.60;6.27;;;;;;;;;;5033734;28;20461;-46
2022/03/11 01:51:17;;;;;;;10.93;6.77;;;;;;;;;;5033479;28;20934;-46
2022/03/11 01:53:43;;;;;;;11.17;7.50;;;;;;;;;;5033767;28;20400;-47
2022/03/11 01:56:09;;;;;;;19.13;8.90;;;;;;;;;;5033739;28;20399;-47
2022/03/11 01:58:35;;;;;;;11.30;7.73;;;;;;;;;;5033784;28;20395;-46
2022/03/11 02:01:02;;;;;;;13.50;7.77;;;;;;;;;;5032806;28;20916;-46
2022/03/11 02:03:28;;;;;;;9.80;6.67;;;;;;;;;;5033054;28;20456;-48
2022/03/11 02:05:54;;;;;;;12.67;7.30;;;;;;;;;;5033169;28;20852;-47
2022/03/11 02:08:20;;;;;;;14.20;7.03;;;;;;;;;;5015852;28;20503;-47
2022/03/11 02:10:46;;;;;;;12.40;7.67;;;;;;;;;;5033302;28;20800;-46
2022/03/11 02:13:12;;;;;;;10.67;7.13;;;;;;;;;;5033559;28;20457;-47
2022/03/11 02:15:38;;;;;;;13.10;7.43;;;;;;;;;;5033242;28;20402;-47
2022/03/11 02:18:04;;;;;;;16.90;7.50;;;;;;;;;;5033330;28;20764;-49
2022/03/11 02:20:30;;;;;;;11.33;7.37;;;;;;;;;;5033032;28;20801;-47
2022/03/11 02:22:58;;;;;;;13.30;8.20;;;;;;;;;;5033223;28;20492;-47
2022/03/11 02:25:24;;;;;;;12.23;7.27;;;;;;;;;;5033249;28;20404;-47
2022/03/11 02:27:49;;;;;;;12.13;8.00;;;;;;;;;;5033177;28;20541;-47
2022/03/11 02:30:17;;;;;;;11.77;7.50;;;;;;;;;;5032727;28;20468;-48
2022/03/11 02:32:43;;;;;;;10.73;7.07;;;;;;;;;;5033072;28;20744;-47
2022/03/11 02:35:09;;;;;;;9.90;6.53;;;;;;;;;;5033018;28;20402;-47
2022/03/11 02:37:36;;;;;;;10.90;7.07;;;;;;;;;;5033051;28;20402;-47
2022/03/11 02:40:03;;;;;;;16.73;7.57;;;;;;;;;;5032680;28;20933;-46
2022/03/11 02:42:29;;;;;;;9.50;7.43;;;;;;;;;;5032778;28;20411;-47
2022/03/11 02:44:55;;;;;;;13.50;7.87;;;;;;;;;;5032772;28;20414;-48
2022/03/11 02:47:21;;;;;;;13.60;8.40;;;;;;;;;;5032869;28;20407;-49
2022/03/11 02:49:46;;;;;;;11.90;7.77;;;;;;;;;;5032480;28;20474;-46
2022/03/11 02:52:12;;;;;;;15.97;8.83;;;;;;;;;;5032269;28;20403;-47
2022/03/11 02:54:38;;;;;;;12.30;7.70;;;;;;;;;;5032816;28;20478;-47
2022/03/11 02:57:04;;;;;;;13.20;7.40;;;;;;;;;;5032721;28;20391;-47
2022/03/11 02:59:30;;;;;;;12.57;7.57;;;;;;;;;;5032468;28;20468;-47
2022/03/11 03:01:56;;;;;;;13.07;7.93;;;;;;;;;;5032656;28;20433;-47
2022/03/11 03:04:22;;;;;;;12.90;7.50;;;;;;;;;;5032692;28;20481;-49
2022/03/11 03:06:51;;;;;;;11.03;7.70;;;;;;;;;;5032511;28;20438;-46
2022/03/11 03:09:17;;;;;;;11.50;7.57;;;;;;;;;;5032378;28;20394;-48
2022/03/11 03:11:43;;;;;;;11.80;8.03;;;;;;;;;;5032271;28;20448;-47
2022/03/11 03:14:09;;;;;;;11.10;7.63;;;;;;;;;;5032359;28;20497;-49
2022/03/11 03:16:35;;;;;;;10.37;7.37;;;;;;;;;;5032313;28;20403;-46
2022/03/11 03:19:01;;;;;;;11.00;7.43;;;;;;;;;;5032187;28;20453;-46
2022/03/11 03:21:28;;;;;;;11.10;7.30;;;;;;;;;;5032210;28;20497;-46
2022/03/11 03:23:54;;;;;;;14.73;7.87;;;;;;;;;;5031739;28;20743;-47
2022/03/11 03:26:20;;;;;;;15.00;8.83;;;;;;;;;;5032120;28;20405;-47
2022/03/11 03:28:46;;;;;;;13.07;7.93;;;;;;;;;;5032064;28;20411;-48
2022/03/11 03:31:12;;;;;;;10.63;6.80;;;;;;;;;;5031846;28;20458;-47
2022/03/11 03:33:38;;;;;;;14.82;7.60;;;;;;;;;;5032139;28;20406;-46
2022/03/11 03:36:04;;;;;;;11.83;8.57;;;;;;;;;;5032110;28;20164;-46
2022/03/11 03:38:30;;;;;;;19.37;7.93;;;;;;;;;;5032147;28;20392;-46
2022/03/11 03:40:56;;;;;;;12.50;8.40;;;;;;;;;;5031685;28;20492;-47
2022/03/11 03:43:22;;;;;;;15.57;8.17;;;;;;;;;;5031963;28;20408;-47
2022/03/11 03:45:48;;;;;;;11.10;7.57;;;;;;;;;;5031958;28;20414;-48
2022/03/11 03:48:14;;;;;;;13.00;7.97;;;;;;;;;;5032009;28;20988;-48
2022/03/11 03:50:40;;;;;;;9.43;7.30;;;;;;;;;;5031647;28;20490;-49
2022/03/11 03:53:06;;;;;;;13.60;7.97;;;;;;;;;;5031896;28;20400;-46
2022/03/11 03:55:32;;;;;;;12.87;8.50;;;;;;;;;;5031883;28;20408;-46
2022/03/11 03:57:58;;;;;;;13.60;8.73;;;;;;;;;;5031732;28;20873;-46
2022/03/11 04:00:24;;;;;;;10.80;7.40;;;;;;;;;;5031577;28;20426;-47
2022/03/11 04:02:51;;;;;;;13.73;8.63;;;;;;;;;;5031598;28;20432;-46
2022/03/11 04:05:18;;;;;;;13.20;7.77;;;;;;;;;;5031863;28;20890;-46
2022/03/11 04:07:44;;;;;;;11.43;7.88;;;;;;;;;;5032117;28;20443;-50
2022/03/11 04:10:11;;;;;;;14.00;7.80;;;;;;;;;;5031507;28;20223;-47
2022/03/11 04:12:37;;;;;;;14.57;8.07;;;;;;;;;;5031634;28;20411;-47
2022/03/11 04:15:03;;;;;;;15.40;8.77;;;;;;;;;;5031818;28;20667;-47
2022/03/11 04:17:29;;;;;;;17.95;8.88;;;;;;;;;;5031752;28;20906;-47
2022/03/11 04:19:55;;;;;;;13.50;8.80;;;;;;;;;;5031479;28;20176;-49
2022/03/11 04:22:21;;;;;;;13.13;8.53;;;;;;;;;;5031710;28;20904;-46
2022/03/11 04:24:47;;;;;;;17.20;9.13;;;;;;;;;;5032078;28;20414;-46
2022/03/11 04:27:14;;;;;;;16.05;9.25;;;;;;;;;;5031600;28;20489;-46
2022/03/11 04:29:40;;;;;;;13.87;8.50;;;;;;;;;;5031343;28;20192;-47
2022/03/11 04:32:06;;;;;;;15.85;8.73;;;;;;;;;;5031762;28;20797;-48
2022/03/11 04:34:32;;;;;;;15.52;9.25;;;;;;;;;;5032609;28;20647;-49
2022/03/11 04:36:58;;;;;;;15.27;9.15;;;;;;;;;;5035376;28;20192;-50
2022/03/11 04:39:26;;;;;;;12.03;8.83;;;;;;;;;;5035243;28;20594;-46
2022/03/11 04:41:53;;;;;;;14.35;10.05;;;;;;;;;;5035207;28;20433;-46
2022/03/11 04:44:20;;;;;;;17.58;10.18;;;;;;;;;;5035435;28;20194;-47
2022/03/11 04:46:46;;;;;;;20.65;10.13;;;;;;;;;;5035560;28;20175;-47
2022/03/11 04:49:13;;;;;;;14.00;9.65;;;;;;;;;;5034993;28;20175;-46
2022/03/11 04:51:39;;;;;;;16.55;9.30;;;;;;;;;;5035002;28;20179;-47
2022/03/11 04:54:06;;;;;;;14.33;9.20;;;;;;;;;;5034951;28;20574;-46
2022/03/11 04:56:32;;;;;;;15.55;9.30;;;;;;;;;;5035156;28;20399;-46
2022/03/11 04:58:58;;;;;;;13.60;8.90;;;;;;;;;;5035086;28;20168;-47
2022/03/11 05:01:24;;;;;;;12.40;7.97;;;;;;;;;;5034952;28;20195;-46
2022/03/11 05:03:50;;;;;;;14.07;9.67;;;;;;;;;;5034740;28;20190;-47
2022/03/11 05:06:16;;;;;;;17.80;10.52;;;;;;;;;;5035213;28;20752;-46
2022/03/11 05:08:42;;;;;;;13.73;9.32;;;;;;;;;;5034808;28;20165;-46
2022/03/11 05:11:08;;;;;;;22.40;10.93;;;;;;;;;;5034481;28;20204;-46
2022/03/11 05:13:34;;;;;;;22.40;10.60;;;;;;;;;;5034633;28;20434;-46
2022/03/11 05:16:00;;;;;;;19.23;9.50;;;;;;;;;;5034692;28;20442;-48
2022/03/11 05:18:26;;;;;;;17.83;10.40;;;;;;;;;;5034653;28;20417;-48
2022/03/11 05:20:53;;;;;;;17.47;11.20;;;;;;;;;;5034457;28;20670;-50
2022/03/11 05:23:19;;;;;;;22.83;10.98;;;;;;;;;;5034347;28;20438;-51
2022/03/11 05:25:44;;;;;;;14.80;9.27;;;;;;;;;;5034475;28;20206;-47
2022/03/11 05:28:10;;;;;;;20.40;10.97;;;;;;;;;;5034492;28;20806;-47
2022/03/11 05:30:36;;;;;;;18.40;11.30;;;;;;;;;;5034039;28;20881;-46
2022/03/11 05:33:03;;;;;;;16.27;10.52;;;;;;;;;;5034272;28;20391;-46
2022/03/11 05:35:29;;;;;;;18.17;10.13;;;;;;;;;;5034432;28;20194;-46
2022/03/11 05:37:56;;;;;;;17.80;10.93;;;;;;;;;;5034127;28;20175;-47
2022/03/11 05:40:22;;;;;;;16.52;11.40;;;;;;;;;;5034022;28;20202;-47
2022/03/11 05:42:48;;;;;;;19.90;10.87;;;;;;;;;;5034116;28;20168;-49
2022/03/11 05:45:14;;;;;;;17.70;10.37;;;;;;;;;;5033692;28;20399;-46
2022/03/11 05:47:40;;;;;;;15.67;9.93;;;;;;;;;;5034103;28;20410;-47
2022/03/11 05:50:07;;;;;;;15.80;10.43;;;;;;;;;;5033852;28;20457;-47
2022/03/11 05:52:36;;;;;;;17.05;12.02;;;;;;;;;;5033921;28;20403;-46
2022/03/11 05:55:03;;;;;;;14.07;10.55;;;;;;;;;;5033966;28;20273;-47
2022/03/11 05:57:29;;;;;;;18.25;11.10;;;;;;;;;;5033866;28;20221;-46
2022/03/11 05:59:55;;;;;;;19.60;10.48;;;;;;;;;;5033715;28;20640;-46
2022/03/11 06:02:21;;;;;;;18.83;11.70;;;;;;;;;;5033933;28;20189;-46
2022/03/11 06:04:47;;;;;;;19.83;12.63;;;;;;;;;;5033877;28;20410;-47
2022/03/11 06:07:13;;;;;;;18.83;12.13;;;;;;;;;;5033883;28;20425;-47
2022/03/11 06:09:39;;;;;;;19.47;11.60;;;;;;;;;;5033368;28;20715;-48
2022/03/11 06:12:06;;;;;;;19.50;12.15;;;;;;;;;;5033410;28;20414;-47
2022/03/11 06:14:31;;;;;;;19.90;11.77;;;;;;;;;;5033641;28;20178;-46
2022/03/11 06:16:57;;;;;;;21.23;12.57;;;;;;;;;;5033548;28;20167;-49
2022/03/11 06:19:23;;;;;;;25.00;12.50;;;;;;;;;;5033312;28;20766;-49
2022/03/11 06:21:49;;;;;;;18.70;11.43;;;;;;;;;;5033278;28;20432;-46
2022/03/11 06:24:15;;;;;;;17.90;11.68;;;;;;;;;;5033315;28;20402;-46
2022/03/11 06:26:41;;;;;;;20.37;12.60;;;;;;;;;;5033360;28;20182;-46
2022/03/11 06:29:10;;;;;;;20.50;13.18;;;;;;;;;;5033189;28;20406;-48
2022/03/11 06:31:36;;;;;;;19.27;12.30;;;;;;;;;;5032929;28;20185;-49
2022/03/11 06:34:03;;;;;;;19.70;12.10;;;;;;;;;;5032867;28;20254;-47
2022/03/11 06:36:29;;;;;;;21.83;12.60;;;;;;;;;;5033086;28;20403;-47
2022/03/11 06:38:55;;;;;;;20.03;12.00;;;;;;;;;;5032910;28;20749;-48
2022/03/11 06:41:22;;;;;;;20.03;12.30;;;;;;;;;;5032617;28;20420;-48
2022/03/11 06:43:48;;;;;;;18.43;12.77;;;;;;;;;;5032781;28;20408;-47
2022/03/11 06:46:14;;;;;;;18.40;11.33;;;;;;;;;;5033352;28;20402;-51
2022/03/11 06:48:40;;;;;;;18.83;12.33;;;;;;;;;;5032695;28;20886;-49
2022/03/11 06:51:06;;;;;;;16.93;11.23;;;;;;;;;;5032328;28;20531;-51
2022/03/11 06:53:33;;;;;;;19.33;12.77;;;;;;;;;;5032630;28;20491;-51
2022/03/11 06:56:00;;;;;;;22.60;13.13;;;;;;;;;;5032722;28;20400;-51
2022/03/11 06:58:26;;;;;;;19.80;12.30;;;;;;;;;;5031872;28;20400;-51
2022/03/11 07:00:52;;;;;;;19.53;12.47;;;;;;;;;;5032265;28;20423;-51
2022/03/11 07:03:18;;;;;;;22.03;12.90;;;;;;;;;;5032336;28;20492;-50
2022/03/11 07:05:44;;;;;;;22.87;12.70;;;;;;;;;;5032611;28;20405;-51
2022/03/11 07:08:14;;;;;;;24.00;12.53;;;;;;;;;;5032421;28;20425;-50
2022/03/11 07:10:40;;;;;;;21.37;13.50;;;;;;;;;;5031955;28;20462;-52
2022/03/11 07:13:05;;;;;;;23.40;13.13;;;;;;;;;;5032713;28;20430;-52
2022/03/11 07:15:31;;;;;;;19.77;11.90;;;;;;;;;;5032228;28;20432;-52
2022/03/11 07:17:58;;;;;;;22.93;14.83;;;;;;;;;;5032247;28;20406;-52
2022/03/11 07:20:24;;;;;;;18.23;13.60;;;;;;;;;;5031945;28;20510;-51
2022/03/11 07:22:50;;;;;;;18.50;11.40;;;;;;;;;;5032286;28;20442;-52
2022/03/11 07:25:16;;;;;;;24.07;14.20;;;;;;;;;;5032292;28;20497;-50
2022/03/11 07:27:42;;;;;;;18.77;11.70;;;;;;;;;;5032300;28;20435;-51
2022/03/11 07:30:11;;;;;;;19.00;12.30;;;;;;;;;;5031310;28;20459;-50
2022/03/11 07:32:38;;;;;;;21.80;13.97;;;;;;;;;;5031529;28;20889;-52
2022/03/11 07:35:04;;;;;;;20.80;13.57;;;;;;;;;;5031639;28;20400;-52
2022/03/11 07:37:30;;;;;;;20.07;13.37;;;;;;;;;;5031797;28;20852;-52
2022/03/11 07:39:56;;;;;;;18.07;12.83;;;;;;;;;;5031358;28;20398;-52
2022/03/11 07:42:21;;;;;;;22.40;13.57;;;;;;;;;;5031853;28;20394;-52
2022/03/11 07:44:47;;;;;;;21.07;12.90;;;;;;;;;;5031825;28;20365;-52
2022/03/11 07:47:13;;;;;;;21.67;13.50;;;;;;;;;;5032008;28;20402;-50
2022/03/11 07:49:42;;;;;;;18.90;12.93;;;;;;;;;;5031658;28;20442;-52
2022/03/11 07:52:14;;;;;;;24.03;13.37;;;;;;;;;;5031509;28;20431;-51
2022/03/11 07:54:41;;;;;;;24.23;13.87;;;;;;;;;;5031658;28;20407;-52
2022/03/11 07:57:07;;;;;;;25.17;13.40;;;;;;;;;;5026229;28;20413;-52
2022/03/11 07:59:34;;;;;;;17.13;12.63;;;;;;;;;;5011538;28;20417;-51
2022/03/11 08:02:00;;;;;;;18.93;13.70;;;;;;;;;;5011435;28;20441;-52
2022/03/11 08:04:26;;;;;;;20.17;14.40;;;;;;;;;;5011783;28;20889;-51
2022/03/11 08:06:52;;;;;;;21.30;13.20;;;;;;;;;;5011918;28;20452;-52
2022/03/11 08:09:18;;;;;;;22.13;14.00;;;;;;;;;;5013716;28;20407;-51
2022/03/11 08:11:44;;;;;;;22.60;13.17;;;;;;;;;;5015944;28;20927;-50
2022/03/11 08:14:13;;;;;;;20.00;11.60;;;;;;;;;;5015303;28;20404;-51
2022/03/11 08:16:39;;;;;;;20.43;13.50;;;;;;;;;;5015359;28;20469;-52
2022/03/11 08:19:06;;;;;;;21.40;13.07;;;;;;;;;;5015339;28;20919;-51
2022/03/11 08:21:32;;;;;;;21.80;13.17;;;;;;;;;;5015154;28;20421;-52
2022/03/11 08:23:58;;;;;;;19.60;13.30;;;;;;;;;;5015310;28;20454;-52
2022/03/11 08:26:26;;;;;;;22.57;13.77;;;;;;;;;;5016108;28;20477;-51
2022/03/11 08:28:53;;;;;;;20.10;13.67;;;;;;;;;;5015327;28;20401;-48
2022/03/11 08:31:19;;;;;;;20.70;13.33;;;;;;;;;;5015121;28;20523;-52
2022/03/11 08:33:44;;;;;;;18.40;13.37;;;;;;;;;;5015351;28;20490;-52
2022/03/11 08:36:11;;;;;;;17.37;13.03;;;;;;;;;;5015605;28;20467;-51
2022/03/11 08:38:37;;;;;;;20.53;12.60;;;;;;;;;;5015075;28;20871;-52
2022/03/11 08:41:06;;;;;;;19.83;12.93;;;;;;;;;;5014637;28;20514;-51
2022/03/11 08:43:32;;;;;;;18.43;12.73;;;;;;;;;;5014797;28;20376;-52
2022/03/11 08:45:58;;;;;;;20.13;12.93;;;;;;;;;;5014717;28;20405;-52
2022/03/11 08:48:24;;;;;;;19.20;12.93;;;;;;;;;;5014844;28;20404;-51
2022/03/11 08:50:50;;;;;;;20.63;13.90;;;;;;;;;;5014469;28;20479;-51
2022/03/11 08:53:19;;;;;;;20.00;11.60;;;;;;;;;;5014746;28;20409;-50
2022/03/11 08:55:45;;;;;;;19.90;13.27;;;;;;;;;;5014771;28;20782;-51
2022/03/11 08:58:11;;;;;;;18.20;12.50;;;;;;;;;;5014688;28;20909;-49
2022/03/11 09:00:37;;;;;;;19.40;12.10;;;;;;;;;;5013026;28;20967;-51
2022/03/11 09:03:03;;;;;;;33.07;14.10;;;;;;;;;;5014252;28;20439;-52
2022/03/11 09:05:30;;;;;;;19.83;13.10;;;;;;;;;;5014528;28;20415;-50
2022/03/11 09:07:58;;;;;;;19.03;12.90;;;;;;;;;;5014477;28;20415;-52
2022/03/11 09:10:24;;;;;;;20.30;11.67;;;;;;;;;;5014140;28;20464;-52
2022/03/11 09:12:51;;;;;;;21.10;12.13;;;;;;;;;;5014749;28;20538;-52
2022/03/11 09:15:20;;;;;;;21.53;13.63;;;;;;;;;;5014409;28;20402;-52
2022/03/11 09:17:46;;;;;;;18.60;12.70;;;;;;;;;;5014417;28;20509;-52
2022/03/11 09:20:12;;;;;;;17.80;13.20;;;;;;;;;;5013184;28;20397;-52
2022/03/11 09:22:40;;;;;;;16.17;11.70;;;;;;;;;;5014412;28;20382;-52
2022/03/11 09:25:07;;;;;;;17.67;12.70;;;;;;;;;;5014408;28;20399;-51
2022/03/11 09:27:33;;;;;;;19.00;12.70;;;;;;;;;;5014137;28;20410;-51
2022/03/11 09:29:59;;;;;;;18.60;12.97;;;;;;;;;;5013832;28;20433;-52
2022/03/11 09:32:25;;;;;;;20.73;13.20;;;;;;;;;;5014117;28;20384;-52
2022/03/11 09:34:52;;;;;;;17.43;12.20;;;;;;;;;;5014169;28;20432;-52
2022/03/11 09:37:18;;;;;;;21.93;12.87;;;;;;;;;;5013966;28;20406;-51
2022/03/11 09:39:44;;;;;;;15.43;12.27;;;;;;;;;;5013813;28;20415;-51
2022/03/11 09:42:10;;;;;;;15.57;12.07;;;;;;;;;;5014136;28;20494;-51
2022/03/11 09:44:38;;;;;;;18.17;12.60;;;;;;;;;;5014295;28;20434;-51
2022/03/11 09:47:04;;;;;;;17.23;12.13;;;;;;;;;;5014087;28;20392;-50
2022/03/11 09:49:35;;;;;;;13.93;12.43;;;;;;;;;;5013592;28;20396;-52
2022/03/11 09:52:05;;;;;;;16.80;12.37;;;;;;;;;;5014099;28;20773;-52
2022/03/11 09:54:31;;;;;;;15.30;11.00;;;;;;;;;;5014280;28;20516;-52
2022/03/11 09:56:57;;;;;;;19.80;12.20;;;;;;;;;;5014264;28;20446;-50
2022/03/11 09:59:24;;;;;;;18.27;12.23;;;;;;;;;;5013956;28;20409;-52
2022/03/11 10:01:51;;;;;;;32.60;12.10;;;;;;;;;;5013962;28;20401;-52
2022/03/11 10:04:17;;;;;;;28.43;12.00;;;;;;;;;;5014022;28;20401;-52
2022/03/11 10:06:44;;;;;;;16.70;11.60;;;;;;;;;;5013870;28;20432;-52
2022/03/11 10:09:30;;;;;;;17.93;11.53;;;;;;;;;;5013914;28;20402;-52
2022/03/11 10:11:56;;;;;;;15.47;11.90;;;;;;;;;;5014287;28;20424;-52
2022/03/11 10:14:36;;;;;;;20.80;13.10;;;;;;;;;;5013845;28;20368;-53
2022/03/11 10:17:04;;;;;;;18.23;11.60;;;;;;;;;;5014275;28;20812;-52
2022/03/11 10:19:30;;;;;;;18.77;11.13;;;;;;;;;;5013548;28;20478;-52
2022/03/11 10:21:57;;;;;;;15.83;11.63;;;;;;;;;;5013683;28;20414;-52
2022/03/11 10:24:23;;;;;;;21.30;11.33;;;;;;;;;;5013762;28;20399;-51
2022/03/11 10:26:50;;;;;;;16.37;11.70;;;;;;;;;;5013744;28;20398;-52
2022/03/11 10:29:21;;;;;;;15.90;11.00;;;;;;;;;;5013414;28;20426;-52
2022/03/11 10:31:52;;;;;;;17.10;11.80;;;;;;;;;;5012333;28;20417;-53
2022/03/11 10:34:31;;;;;;;15.90;11.87;;;;;;;;;;5013507;28;20507;-53
2022/03/11 10:37:07;;;;;;;15.83;11.27;;;;;;;;;;5016697;28;20427;-51
2022/03/11 10:39:43;;;;;;;16.47;12.13;;;;;;;;;;5015423;28;20938;-48
2022/03/11 10:42:12;;;;;;;16.53;11.00;;;;;;;;;;5013140;28;20404;-49
2022/03/11 10:44:39;;;;;;;15.87;11.67;;;;;;;;;;5013365;28;20433;-48
2022/03/11 10:47:21;;;;;;;16.37;12.10;;;;;;;;;;5013403;28;20477;-48
2022/03/11 10:49:50;;;;;;;16.93;11.70;;;;;;;;;;5012785;28;21087;-47
2022/03/11 10:52:28;;;;;;;17.10;12.57;;;;;;;;;;5012986;28;20455;-50
2022/03/11 10:54:54;;;;;;;15.50;12.37;;;;;;;;;;5013201;28;20393;-51
2022/03/11 10:57:21;;;;;;;17.40;12.00;;;;;;;;;;5013422;28;21137;-47
2022/03/11 10:59:47;;;;;;;15.00;11.67;;;;;;;;;;5012865;28;20444;-50
2022/03/11 11:02:13;;;;;;;22.00;11.70;;;;;;;;;;5011617;28;20449;-49
2022/03/11 11:04:42;;;;;;;16.23;12.10;;;;;;;;;;5013128;28;20453;-50
2022/03/11 11:07:08;;;;;;;16.40;12.60;;;;;;;;;;5012727;28;20427;-49
2022/03/11 11:09:35;;;;;;;19.20;11.90;;;;;;;;;;5012646;28;20408;-52
2022/03/11 11:12:01;;;;;;;15.20;11.73;;;;;;;;;;5012873;28;20423;-53
2022/03/11 11:14:27;;;;;;;15.17;12.10;;;;;;;;;;5012718;28;20826;-53
2022/03/11 11:16:57;;;;;;;15.50;12.63;;;;;;;;;;5012671;28;20494;-53
2022/03/11 11:19:24;;;;;;;15.37;12.40;;;;;;;;;;5013034;28;20455;-53
2022/03/11 11:21:51;;;;;;;15.03;13.37;;;;;;;;;;5012446;28;20462;-53
2022/03/11 11:24:24;;;;;;;16.97;12.40;;;;;;;;;;5012813;28;20440;-52
2022/03/11 11:26:53;;;;;;;16.40;12.10;;;;;;;;;;5012704;28;20409;-53
2022/03/11 11:29:23;;;;;;;15.50;11.70;;;;;;;;;;5012507;28;20432;-53
2022/03/11 11:31:49;;;;;;;16.70;12.77;;;;;;;;;;5012454;28;20431;-53
2022/03/11 11:34:30;;;;;;;16.70;13.10;;;;;;;;;;5012535;28;20461;-52
2022/03/11 11:36:56;;;;;;;16.60;13.70;;;;;;;;;;5012425;28;20403;-52
2022/03/11 11:39:24;;;;;;;15.60;12.00;;;;;;;;;;5012040;28;20877;-52
2022/03/11 11:41:51;;;;;;;17.20;13.00;;;;;;;;;;5012170;28;20976;-53
2022/03/11 11:44:19;;;;;;;20.73;12.43;;;;;;;;;;5011475;28;20748;-52
2022/03/11 11:47:05;;;;;;;12.93;10.80;;;;;;;;;;5011718;28;20399;-50
2022/03/11 11:49:47;;;;;;;17.67;13.00;;;;;;;;;;5011893;28;20399;-51
2022/03/11 11:52:35;;;;;;;14.90;12.03;;;;;;;;;;5012280;28;20490;-51
2022/03/11 11:55:20;;;;;;;15.50;11.93;;;;;;;;;;5012317;28;20407;-49
2022/03/11 11:57:47;;;;;;;19.23;12.73;;;;;;;;;;4978984;28;20926;-50
2022/03/11 12:00:34;;;;;;;14.70;12.30;;;;;;;;;;5011901;28;20488;-50
2022/03/11 12:03:00;;;;;;;14.40;11.80;;;;;;;;;;5010764;28;20514;-50
2022/03/11 12:05:44;;;;;;;14.20;11.63;;;;;;;;;;5010782;28;20433;-50
2022/03/11 12:08:11;;;;;;;17.10;14.03;;;;;;;;;;5011534;28;20760;-51
2022/03/11 12:10:50;;;;;;;28.07;18.87;;;;;;;;;;4994353;28;20470;-50
2022/03/11 12:13:31;;;;;;;16.13;12.37;;;;;;;;;;5012061;28;20929;-51
2022/03/11 12:15:57;;;;;;;16.53;13.27;;;;;;;;;;5012053;28;20395;-51
2022/03/11 12:18:37;;;;;;;18.10;13.33;;;;;;;;;;4994371;28;20930;-52
2022/03/11 12:21:04;;;;;;;15.60;11.73;;;;;;;;;;4993988;28;20938;-49
2022/03/11 12:23:32;;;;;;;15.03;12.93;;;;;;;;;;5012088;28;20914;-49
2022/03/11 12:25:58;;;;;;;14.70;12.83;;;;;;;;;;5011949;28;20406;-52
2022/03/11 12:28:31;;;;;;;15.70;12.20;;;;;;;;;;5010820;28;20414;-50
2022/03/11 12:31:03;;;;;;;15.53;13.23;;;;;;;;;;5011685;28;20463;-49
2022/03/11 12:33:31;;;;;;;18.43;12.30;;;;;;;;;;5011931;28;20442;-51
2022/03/11 12:35:58;;;;;;;19.10;13.20;;;;;;;;;;5012055;28;20406;-49
2022/03/11 12:38:28;;;;;;;15.10;12.00;;;;;;;;;;5011954;28;20403;-49
2022/03/11 12:40:54;;;;;;;14.00;12.13;;;;;;;;;;5011679;28;20415;-49
2022/03/11 12:43:26;;;;;;;16.30;11.87;;;;;;;;;;5011917;28;20409;-49
2022/03/11 12:45:54;;;;;;;16.70;12.50;;;;;;;;;;5012565;28;20805;-54
2022/03/11 12:48:22;;;;;;;14.73;12.07;;;;;;;;;;5012067;28;20403;-54
2022/03/11 12:50:49;;;;;;;15.10;11.30;;;;;;;;;;5011331;28;20470;-54
2022/03/11 12:53:16;;;;;;;15.40;12.77;;;;;;;;;;5011640;28;20867;-54
2022/03/11 12:55:44;;;;;;;13.20;11.80;;;;;;;;;;5012879;28;20412;-54
2022/03/11 12:58:12;;;;;;;13.10;11.67;;;;;;;;;;5015583;28;20402;-53
2022/03/11 13:00:39;;;;;;;13.57;11.97;;;;;;;;;;5015011;28;20421;-54
2022/03/11 13:03:15;;;;;;;14.33;11.97;;;;;;;;;;5015063;28;20481;-53
2022/03/11 13:05:42;;;;;;;13.77;11.30;;;;;;;;;;5015351;28;20828;-53
2022/03/11 13:08:08;;;;;;;16.33;13.20;;;;;;;;;;5015198;28;20421;-53
2022/03/11 13:10:35;;;;;;;14.67;12.33;;;;;;;;;;5014751;28;20465;-54
2022/03/11 13:13:03;;;;;;;20.93;12.60;;;;;;;;;;5014264;28;20419;-52
2022/03/11 13:15:30;;;;;;;14.57;12.03;;;;;;;;;;5015012;28;20395;-54
2022/03/11 13:17:59;;;;;;;16.20;12.50;;;;;;;;;;5015006;28;20398;-53
2022/03/11 13:20:25;;;;;;;18.00;12.00;;;;;;;;;;5014485;28;20488;-54
2022/03/11 13:22:51;;;;;;;18.50;13.30;;;;;;;;;;5014846;28;20821;-54
2022/03/11 13:25:28;;;;;;;14.30;11.40;;;;;;;;;;5014752;28;20454;-54
2022/03/11 13:27:55;;;;;;;13.27;11.30;;;;;;;;;;5014581;28;20395;-53
2022/03/11 13:30:35;;;;;;;16.40;13.13;;;;;;;;;;5014414;28;20462;-53
2022/03/11 13:33:10;;;;;;;17.00;11.63;;;;;;;;;;5014462;28;20475;-54
2022/03/11 13:35:36;;;;;;;13.47;12.03;;;;;;;;;;5014551;28;20453;-54
2022/03/11 13:38:02;;;;;;;18.20;11.87;;;;;;;;;;5014511;28;20908;-54
2022/03/11 13:40:29;;;;;;;15.10;12.27;;;;;;;;;;5014256;28;20423;-54
2022/03/11 13:42:56;;;;;;;16.67;11.97;;;;;;;;;;5014360;28;20421;-54
2022/03/11 13:45:32;;;;;;;14.37;12.30;;;;;;;;;;5014274;28;20407;-53
2022/03/11 13:48:06;;;;;;;13.40;12.00;;;;;;;;;;5014478;28;20479;-53
2022/03/11 13:50:32;;;;;;;15.57;12.80;;;;;;;;;;5013961;28;20467;-54
2022/03/11 13:52:58;;;;;;;14.80;11.50;;;;;;;;;;5013968;28;20398;-52
2022/03/11 13:55:32;;;;;;;16.57;12.73;;;;;;;;;;5014075;28;20402;-53
2022/03/11 13:58:18;;;;;;;15.40;12.93;;;;;;;;;;5014170;28;20630;-53
2022/03/11 14:00:44;;;;;;;15.93;12.40;;;;;;;;;;5013834;28;20921;-54
2022/03/11 14:03:17;;;;;;;15.83;12.13;;;;;;;;;;5013973;28;20429;-54
2022/03/11 14:05:44;;;;;;;18.20;14.20;;;;;;;;;;5013813;28;20456;-53
2022/03/11 14:08:12;;;;;;;14.80;13.10;;;;;;;;;;5013485;28;20472;-54
2022/03/11 14:10:40;;;;;;;17.10;12.80;;;;;;;;;;5013628;28;20463;-53
2022/03/11 14:13:07;;;;;;;15.97;13.97;;;;;;;;;;5013820;28;20409;-54
2022/03/11 14:15:44;;;;;;;16.97;12.87;;;;;;;;;;5013689;28;20400;-51
2022/03/11 14:18:12;;;;;;;15.43;12.90;;;;;;;;;;5013412;28;20400;-53
2022/03/11 14:20:39;;;;;;;15.30;12.07;;;;;;;;;;5013168;28;20423;-53
2022/03/11 14:23:05;;;;;;;17.23;12.33;;;;;;;;;;5012683;28;20413;-53
2022/03/11 14:25:31;;;;;;;16.20;12.50;;;;;;;;;;5013458;28;20407;-53